sensor_id;sensor_type;location;lat;lon;timestamp;pressure;altitude;pressure_sealevel;temperature;humidity
11487;BME280;10510;47.942;9.442;2023-06-22T00:01:02;94636.34;;;18.35;100.00
11487;BME280;10510;47.942;9.442;2023-06-22T00:03:02;94638.44;;;18.33;100.00
11487;BME280;10510;47.942;9.442;2023-06-22T00:05:03;94634.41;;;18.30;100.00
11487;BME280;10510;47.942;9.442;2023-06-22T00:07:03;94635.69;;;18.28;100.00
11487;BME280;10510;47.942;9.442;2023-06-22T00:09:03;94638.53;;;18.26;100.00
11487;BME280;10510;47.942;9.442;2023-06-22T00:11:04;94642.22;;;18.25;100.00
11487;BME280;10510;47.942;9.442;2023-06-22T00:13:05;94639.91;;;18.29;100.00
11487;BME280;10510;47.942;9.442;2023-06-22T00:15:06;94644.66;;;18.27;100.00
11487;BME280;10510;47.942;9.442;2023-06-22T00:17:06;94645.13;;;18.24;100.00
11487;BME280;10510;47.942;9.442;2023-06-22T00:19:07;94646.38;;;18.21;100.00
11487;BME280;10510;47.942;9.442;2023-06-22T00:21:07;94653.16;;;18.17;100.00
11487;BME280;10510;47.942;9.442;2023-06-22T00:23:08;94651.53;;;18.16;100.00
11487;BME280;10510;47.942;9.442;2023-06-22T00:25:08;94648.09;;;18.15;100.00
11487;BME280;10510;47.942;9.442;2023-06-22T00:27:09;94647.19;;;18.10;100.00
11487;BME280;10510;47.942;9.442;2023-06-22T00:29:09;94653.13;;;18.05;100.00
11487;BME280;10510;47.942;9.442;2023-06-22T00:31:10;94645.47;;;18.04;100.00
11487;BME280;10510;47.942;9.442;2023-06-22T00:33:10;94640.38;;;18.02;100.00
11487;BME280;10510;47.942;9.442;2023-06-22T00:35:11;94641.41;;;18.01;100.00
11487;BME280;10510;47.942;9.442;2023-06-22T00:37:12;94639.59;;;18.02;100.00
11487;BME280;10510;47.942;9.442;2023-06-22T00:39:13;94637.19;;;18.00;100.00
11487;BME280;10510;47.942;9.442;2023-06-22T00:41:13;94639.25;;;17.98;100.00
11487;BME280;10510;47.942;9.442;2023-06-22T00:43:14;94647.63;;;17.95;100.00
11487;BME280;10510;47.942;9.442;2023-06-22T00:45:14;94648.44;;;17.96;100.00
11487;BME280;10510;47.942;9.442;2023-06-22T00:47:17;94641.09;;;17.98;100.00
11487;BME280;10510;47.942;9.442;2023-06-22T00:49:17;94643.72;;;17.98;100.00
11487;BME280;10510;47.942;9.442;2023-06-22T00:51:18;94637.06;;;17.95;100.00
11487;BME280;10510;47.942;9.442;2023-06-22T00:53:24;94641.09;;;17.98;100.00
11487;BME280;10510;47.942;9.442;2023-06-22T00:55:25;94636.81;;;17.97;100.00
11487;BME280;10510;47.942;9.442;2023-06-22T00:57:26;94633.81;;;17.93;100.00
11487;BME280;10510;47.942;9.442;2023-06-22T00:59:28;94631.88;;;17.88;100.00
11487;BME280;10510;47.942;9.442;2023-06-22T01:01:28;94638.19;;;17.87;100.00
11487;BME280;10510;47.942;9.442;2023-06-22T01:03:29;94652.19;;;17.88;100.00
11487;BME280;10510;47.942;9.442;2023-06-22T01:05:31;94650.59;;;17.87;100.00
11487;BME280;10510;47.942;9.442;2023-06-22T01:07:35;94641.75;;;17.81;100.00
11487;BME280;10510;47.942;9.442;2023-06-22T01:09:47;94641.97;;;17.80;100.00
11487;BME280;10510;47.942;9.442;2023-06-22T01:11:54;94649.66;;;17.81;100.00
11487;BME280;10510;47.942;9.442;2023-06-22T01:14:04;94650.47;;;17.82;100.00
11487;BME280;10510;47.942;9.442;2023-06-22T01:16:16;94649.91;;;17.80;100.00
11487;BME280;10510;47.942;9.442;2023-06-22T01:18:18;94644.84;;;17.78;100.00
11487;BME280;10510;47.942;9.442;2023-06-22T01:20:21;94643.00;;;17.79;100.00
11487;BME280;10510;47.942;9.442;2023-06-22T01:22:24;94647.09;;;17.75;100.00
11487;BME280;10510;47.942;9.442;2023-06-22T01:24:32;94646.06;;;17.76;100.00
11487;BME280;10510;47.942;9.442;2023-06-22T01:26:48;94645.63;;;17.79;100.00
11487;BME280;10510;47.942;9.442;2023-06-22T01:28:55;94649.91;;;17.80;100.00
11487;BME280;10510;47.942;9.442;2023-06-22T01:30:57;94646.44;;;17.79;100.00
11487;BME280;10510;47.942;9.442;2023-06-22T01:33:06;94645.06;;;17.77;100.00
11487;BME280;10510;47.942;9.442;2023-06-22T01:35:08;94645.06;;;17.77;100.00
11487;BME280;10510;47.942;9.442;2023-06-22T01:37:09;94646.69;;;17.78;100.00
11487;BME280;10510;47.942;9.442;2023-06-22T01:39:09;94643.41;;;17.76;100.00
11487;BME280;10510;47.942;9.442;2023-06-22T01:41:11;94645.72;;;17.72;100.00
11487;BME280;10510;47.942;9.442;2023-06-22T01:43:12;94639.28;;;17.68;100.00
11487;BME280;10510;47.942;9.442;2023-06-22T01:45:13;94640.53;;;17.65;100.00
11487;BME280;10510;47.942;9.442;2023-06-22T01:47:15;94641.56;;;17.64;100.00
11487;BME280;10510;47.942;9.442;2023-06-22T01:49:15;94642.84;;;17.62;100.00
11487;BME280;10510;47.942;9.442;2023-06-22T01:51:16;94655.22;;;17.61;100.00
11487;BME280;10510;47.942;9.442;2023-06-22T01:53:16;94653.63;;;17.60;100.00
11487;BME280;10510;47.942;9.442;2023-06-22T01:55:16;94651.19;;;17.59;100.00
11487;BME280;10510;47.942;9.442;2023-06-22T01:57:17;94652.47;;;17.56;100.00
11487;BME280;10510;47.942;9.442;2023-06-22T01:59:32;94652.69;;;17.55;100.00
11487;BME280;10510;47.942;9.442;2023-06-22T02:01:42;94651.88;;;17.54;100.00
11487;BME280;10510;47.942;9.442;2023-06-22T02:03:48;94653.94;;;17.52;100.00
11487;BME280;10510;47.942;9.442;2023-06-22T02:05:56;94659.81;;;17.54;100.00
11487;BME280;10510;47.942;9.442;2023-06-22T02:08:20;94653.50;;;17.55;100.00
11487;BME280;10510;47.942;9.442;2023-06-22T02:10:22;94647.19;;;17.56;100.00
11487;BME280;10510;47.942;9.442;2023-06-22T02:12:25;94640.88;;;17.57;100.00
11487;BME280;10510;47.942;9.442;2023-06-22T02:14:28;94638.44;;;17.56;100.00
11487;BME280;10510;47.942;9.442;2023-06-22T02:16:31;94651.66;;;17.56;100.00
11487;BME280;10510;47.942;9.442;2023-06-22T02:18:31;94651.44;;;17.57;100.00
11487;BME280;10510;47.942;9.442;2023-06-22T02:20:31;94664.41;;;17.59;100.00
11487;BME280;10510;47.942;9.442;2023-06-22T02:22:32;94671.78;;;17.57;100.00
11487;BME280;10510;47.942;9.442;2023-06-22T02:24:32;94667.94;;;17.53;100.00
11487;BME280;10510;47.942;9.442;2023-06-22T02:26:33;94681.63;;;17.49;100.00
11487;BME280;10510;47.942;9.442;2023-06-22T02:28:34;94678.72;;;17.39;100.00
11487;BME280;10510;47.942;9.442;2023-06-22T02:30:34;94691.19;;;17.32;100.00
11487;BME280;10510;47.942;9.442;2023-06-22T02:32:35;94684.16;;;17.26;100.00
11487;BME280;10510;47.942;9.442;2023-06-22T02:34:35;94685.41;;;17.23;100.00
11487;BME280;10510;47.942;9.442;2023-06-22T02:36:36;94682.78;;;17.23;100.00
11487;BME280;10510;47.942;9.442;2023-06-22T02:38:37;94686.44;;;17.22;100.00
11487;BME280;10510;47.942;9.442;2023-06-22T02:40:37;94686.91;;;17.19;100.00
11487;BME280;10510;47.942;9.442;2023-06-22T02:42:39;94693.22;;;17.18;100.00
11487;BME280;10510;47.942;9.442;2023-06-22T02:44:40;94685.50;;;17.17;100.00
11487;BME280;10510;47.942;9.442;2023-06-22T02:46:40;94691.03;;;17.15;100.00
11487;BME280;10510;47.942;9.442;2023-06-22T02:48:40;94694.47;;;17.16;100.00
11487;BME280;10510;47.942;9.442;2023-06-22T02:50:41;94688.94;;;17.17;100.00
11487;BME280;10510;47.942;9.442;2023-06-22T02:52:41;94686.31;;;17.17;100.00
11487;BME280;10510;47.942;9.442;2023-06-22T02:54:41;94697.69;;;17.18;100.00
11487;BME280;10510;47.942;9.442;2023-06-22T02:56:42;94705.38;;;17.19;100.00
11487;BME280;10510;47.942;9.442;2023-06-22T02:58:43;94695.41;;;17.21;100.00
11487;BME280;10510;47.942;9.442;2023-06-22T03:00:44;94703.78;;;17.18;100.00
11487;BME280;10510;47.942;9.442;2023-06-22T03:02:45;94698.94;;;17.15;100.00
11487;BME280;10510;47.942;9.442;2023-06-22T03:04:45;94699.16;;;17.14;100.00
11487;BME280;10510;47.942;9.442;2023-06-22T03:06:48;94696.50;;;17.14;100.00
11487;BME280;10510;47.942;9.442;2023-06-22T03:08:51;94690.88;;;17.10;100.00
11487;BME280;10510;47.942;9.442;2023-06-22T03:10:51;94681.22;;;17.04;100.00
11487;BME280;10510;47.942;9.442;2023-06-22T03:12:51;94683.94;;;16.97;100.00
11487;BME280;10510;47.942;9.442;2023-06-22T03:14:51;94693.09;;;16.95;100.00
11487;BME280;10510;47.942;9.442;2023-06-22T03:16:52;94687.81;;;16.95;100.00
11487;BME280;10510;47.942;9.442;2023-06-22T03:18:52;94684.38;;;16.94;100.00
11487;BME280;10510;47.942;9.442;2023-06-22T03:20:56;94687.03;;;16.94;100.00
11487;BME280;10510;47.942;9.442;2023-06-22T03:22:56;94678.72;;;16.91;100.00
11487;BME280;10510;47.942;9.442;2023-06-22T03:24:56;94676.97;;;16.85;100.00
11487;BME280;10510;47.942;9.442;2023-06-22T03:26:56;94679.88;;;16.76;100.00
11487;BME280;10510;47.942;9.442;2023-06-22T03:28:57;94687.66;;;16.71;100.00
11487;BME280;10510;47.942;9.442;2023-06-22T03:30:58;94678.09;;;16.70;100.00
11487;BME280;10510;47.942;9.442;2023-06-22T03:32:58;94666.75;;;16.70;100.00
11487;BME280;10510;47.942;9.442;2023-06-22T03:34:59;94668.44;;;16.64;100.00
11487;BME280;10510;47.942;9.442;2023-06-22T03:37:00;94671.75;;;16.60;100.00
11487;BME280;10510;47.942;9.442;2023-06-22T03:39:00;94667.72;;;16.57;100.00
11487;BME280;10510;47.942;9.442;2023-06-22T03:41:00;94669.75;;;16.55;100.00
11487;BME280;10510;47.942;9.442;2023-06-22T03:43:00;94675.03;;;16.55;100.00
11487;BME280;10510;47.942;9.442;2023-06-22T03:45:01;94671.94;;;16.58;100.00
11487;BME280;10510;47.942;9.442;2023-06-22T03:47:03;94674.16;;;16.61;100.00
11487;BME280;10510;47.942;9.442;2023-06-22T03:49:04;94695.63;;;16.65;100.00
11487;BME280;10510;47.942;9.442;2023-06-22T03:51:04;94688.53;;;16.65;100.00
11487;BME280;10510;47.942;9.442;2023-06-22T03:53:04;94691.97;;;16.66;100.00
11487;BME280;10510;47.942;9.442;2023-06-22T03:55:05;94689.94;;;16.68;100.00
11487;BME280;10510;47.942;9.442;2023-06-22T03:57:06;94691.72;;;16.67;100.00
11487;BME280;10510;47.942;9.442;2023-06-22T03:59:06;94682.81;;;16.68;100.00
11487;BME280;10510;47.942;9.442;2023-06-22T04:01:06;94691.53;;;16.69;100.00
11487;BME280;10510;47.942;9.442;2023-06-22T04:03:11;94690.28;;;16.71;100.00
11487;BME280;10510;47.942;9.442;2023-06-22T04:05:12;94693.72;;;16.72;100.00
11487;BME280;10510;47.942;9.442;2023-06-22T04:07:12;94693.50;;;16.73;100.00
11487;BME280;10510;47.942;9.442;2023-06-22T04:09:12;94705.69;;;16.74;100.00
11487;BME280;10510;47.942;9.442;2023-06-22T04:11:13;94693.91;;;16.77;100.00
11487;BME280;10510;47.942;9.442;2023-06-22T04:13:13;94702.41;;;16.79;100.00
11487;BME280;10510;47.942;9.442;2023-06-22T04:15:13;94695.06;;;16.81;100.00
11487;BME280;10510;47.942;9.442;2023-06-22T04:17:13;94696.91;;;16.80;100.00
11487;BME280;10510;47.942;9.442;2023-06-22T04:19:14;94708.50;;;16.79;100.00
11487;BME280;10510;47.942;9.442;2023-06-22T04:21:17;94708.72;;;16.78;100.00
11487;BME280;10510;47.942;9.442;2023-06-22T04:23:19;94702.00;;;16.75;100.00
11487;BME280;10510;47.942;9.442;2023-06-22T04:25:20;94695.56;;;16.71;100.00
11487;BME280;10510;47.942;9.442;2023-06-22T04:27:20;94696.00;;;16.68;100.00
11487;BME280;10510;47.942;9.442;2023-06-22T04:29:23;94704.13;;;16.67;100.00
11487;BME280;10510;47.942;9.442;2023-06-22T04:31:28;94701.63;;;16.72;100.00
11487;BME280;10510;47.942;9.442;2023-06-22T04:33:31;94720.22;;;16.84;100.00
11487;BME280;10510;47.942;9.442;2023-06-22T04:35:32;94702.47;;;16.91;100.00
11487;BME280;10510;47.942;9.442;2023-06-22T04:37:33;94710.09;;;16.99;100.00
11487;BME280;10510;47.942;9.442;2023-06-22T04:39:33;94704.53;;;17.07;100.00
11487;BME280;10510;47.942;9.442;2023-06-22T04:41:34;94708.69;;;17.15;100.00
11487;BME280;10510;47.942;9.442;2023-06-22T04:43:41;94693.22;;;17.18;100.00
11487;BME280;10510;47.942;9.442;2023-06-22T04:45:42;94686.44;;;17.22;100.00
11487;BME280;10510;47.942;9.442;2023-06-22T04:47:42;94692.69;;;17.28;100.00
11487;BME280;10510;47.942;9.442;2023-06-22T04:49:42;94700.50;;;17.35;100.00
11487;BME280;10510;47.942;9.442;2023-06-22T04:51:43;94690.22;;;17.45;100.00
11487;BME280;10510;47.942;9.442;2023-06-22T04:53:43;94680.34;;;17.52;100.00
11487;BME280;10510;47.942;9.442;2023-06-22T04:55:43;94690.03;;;17.58;100.00
11487;BME280;10510;47.942;9.442;2023-06-22T04:57:46;94701.53;;;17.64;100.00
11487;BME280;10510;47.942;9.442;2023-06-22T04:59:49;94694.34;;;17.71;100.00
11487;BME280;10510;47.942;9.442;2023-06-22T05:01:49;94692.63;;;17.77;100.00
11487;BME280;10510;47.942;9.442;2023-06-22T05:03:51;94685.06;;;17.80;100.00
11487;BME280;10510;47.942;9.442;2023-06-22T05:05:58;94692.91;;;17.87;100.00
11487;BME280;10510;47.942;9.442;2023-06-22T05:08:00;94688.28;;;17.94;100.00
11487;BME280;10510;47.942;9.442;2023-06-22T05:10:02;94683.38;;;17.98;100.00
11487;BME280;10510;47.942;9.442;2023-06-22T05:12:03;94677.41;;;18.02;100.00
11487;BME280;10510;47.942;9.442;2023-06-22T05:14:04;94675.47;;;18.09;100.00
11487;BME280;10510;47.942;9.442;2023-06-22T05:16:05;94673.75;;;18.15;100.00
11487;BME280;10510;47.942;9.442;2023-06-22T05:18:06;94682.03;;;18.19;100.00
11487;BME280;10510;47.942;9.442;2023-06-22T05:20:07;94692.72;;;18.24;100.00
11487;BME280;10510;47.942;9.442;2023-06-22T05:22:07;94685.25;;;18.32;100.00
11487;BME280;10510;47.942;9.442;2023-06-22T05:24:07;94676.63;;;18.37;100.00
11487;BME280;10510;47.942;9.442;2023-06-22T05:26:08;94677.06;;;18.46;100.00
11487;BME280;10510;47.942;9.442;2023-06-22T05:28:10;94688.91;;;18.55;100.00
11487;BME280;10510;47.942;9.442;2023-06-22T05:30:11;94682.47;;;18.63;100.00
11487;BME280;10510;47.942;9.442;2023-06-22T05:32:11;94679.69;;;18.69;100.00
11487;BME280;10510;47.942;9.442;2023-06-22T05:34:12;94671.44;;;18.77;100.00
11487;BME280;10510;47.942;9.442;2023-06-22T05:36:13;94676.59;;;18.84;100.00
11487;BME280;10510;47.942;9.442;2023-06-22T05:38:13;94679.91;;;18.91;100.00
11487;BME280;10510;47.942;9.442;2023-06-22T05:40:14;94678.53;;;19.00;100.00
11487;BME280;10510;47.942;9.442;2023-06-22T05:42:14;94675.50;;;19.09;100.00
11487;BME280;10510;47.942;9.442;2023-06-22T05:44:14;94678.03;;;19.15;100.00
11487;BME280;10510;47.942;9.442;2023-06-22T05:46:17;94679.00;;;19.26;100.00
11487;BME280;10510;47.942;9.442;2023-06-22T05:48:17;94682.88;;;19.35;100.00
11487;BME280;10510;47.942;9.442;2023-06-22T05:50:17;94676.19;;;19.44;100.00
11487;BME280;10510;47.942;9.442;2023-06-22T05:52:18;94674.75;;;19.54;100.00
11487;BME280;10510;47.942;9.442;2023-06-22T05:54:18;94685.53;;;19.64;100.00
11487;BME280;10510;47.942;9.442;2023-06-22T05:56:18;94686.78;;;19.73;100.00
11487;BME280;10510;47.942;9.442;2023-06-22T05:58:19;94692.59;;;19.87;100.00
11487;BME280;10510;47.942;9.442;2023-06-22T06:00:19;94679.72;;;20.85;100.00
11487;BME280;10510;47.942;9.442;2023-06-22T06:02:20;94662.94;;;22.05;100.00
11487;BME280;10510;47.942;9.442;2023-06-22T06:04:20;94645.09;;;22.80;100.00
11487;BME280;10510;47.942;9.442;2023-06-22T06:06:20;94635.72;;;23.35;100.00
11487;BME280;10510;47.942;9.442;2023-06-22T06:08:22;94628.06;;;23.79;100.00
11487;BME280;10510;47.942;9.442;2023-06-22T06:10:23;94613.41;;;24.18;100.00
11487;BME280;10510;47.942;9.442;2023-06-22T06:12:23;94612.31;;;24.50;100.00
11487;BME280;10510;47.942;9.442;2023-06-22T06:14:23;94610.97;;;24.57;100.00
11487;BME280;10510;47.942;9.442;2023-06-22T06:16:24;94622.94;;;24.70;100.00
11487;BME280;10510;47.942;9.442;2023-06-22T06:18:24;94605.53;;;24.83;100.00
11487;BME280;10510;47.942;9.442;2023-06-22T06:20:26;94604.63;;;25.03;100.00
11487;BME280;10510;47.942;9.442;2023-06-22T06:22:28;94599.81;;;25.15;100.00
11487;BME280;10510;47.942;9.442;2023-06-22T06:24:28;94610.22;;;25.17;100.00
11487;BME280;10510;47.942;9.442;2023-06-22T06:26:28;94610.47;;;25.20;100.00
11487;BME280;10510;47.942;9.442;2023-06-22T06:28:29;94611.47;;;25.29;100.00
11487;BME280;10510;47.942;9.442;2023-06-22T06:30:29;94608.53;;;25.36;100.00
11487;BME280;10510;47.942;9.442;2023-06-22T06:32:30;94600.78;;;25.29;100.00
11487;BME280;10510;47.942;9.442;2023-06-22T06:34:30;94597.91;;;25.21;100.00
11487;BME280;10510;47.942;9.442;2023-06-22T06:36:30;94605.94;;;25.10;100.00
11487;BME280;10510;47.942;9.442;2023-06-22T06:38:30;94602.44;;;25.20;100.00
11487;BME280;10510;47.942;9.442;2023-06-22T06:40:34;94603.75;;;25.28;100.00
11487;BME280;10510;47.942;9.442;2023-06-22T06:42:34;94600.28;;;25.27;100.00
11487;BME280;10510;47.942;9.442;2023-06-22T06:44:34;94602.88;;;25.37;100.00
11487;BME280;10510;47.942;9.442;2023-06-22T06:46:35;94596.94;;;25.51;100.00
11487;BME280;10510;47.942;9.442;2023-06-22T06:48:35;94593.16;;;25.57;100.00
11487;BME280;10510;47.942;9.442;2023-06-22T06:50:36;94584.75;;;25.74;100.00
11487;BME280;10510;47.942;9.442;2023-06-22T06:52:36;94594.69;;;26.02;100.00
11487;BME280;10510;47.942;9.442;2023-06-22T06:54:37;94592.56;;;25.99;100.00
11487;BME280;10510;47.942;9.442;2023-06-22T06:56:37;94591.16;;;25.73;100.00
11487;BME280;10510;47.942;9.442;2023-06-22T06:58:41;94590.03;;;25.45;100.00
11487;BME280;10510;47.942;9.442;2023-06-22T07:00:42;94595.66;;;25.38;100.00
11487;BME280;10510;47.942;9.442;2023-06-22T07:02:44;94591.38;;;25.42;100.00
11487;BME280;10510;47.942;9.442;2023-06-22T07:04:45;94607.06;;;25.59;100.00
11487;BME280;10510;47.942;9.442;2023-06-22T07:06:46;94602.91;;;25.77;100.00
11487;BME280;10510;47.942;9.442;2023-06-22T07:08:47;94599.28;;;25.97;100.00
11487;BME280;10510;47.942;9.442;2023-06-22T07:10:47;94600.41;;;25.91;100.00
11487;BME280;10510;47.942;9.442;2023-06-22T07:12:47;94591.91;;;25.83;100.00
11487;BME280;10510;47.942;9.442;2023-06-22T07:14:47;94597.56;;;25.77;100.00
11487;BME280;10510;47.942;9.442;2023-06-22T07:16:48;94598.97;;;25.64;100.00
11487;BME280;10510;47.942;9.442;2023-06-22T07:18:48;94606.41;;;25.72;100.00
11487;BME280;10510;47.942;9.442;2023-06-22T07:20:48;94600.94;;;25.93;100.00
11487;BME280;10510;47.942;9.442;2023-06-22T07:22:49;94602.88;;;26.16;100.00
11487;BME280;10510;47.942;9.442;2023-06-22T07:24:49;94600.34;;;26.30;100.00
11487;BME280;10510;47.942;9.442;2023-06-22T07:26:50;94596.69;;;26.21;100.00
11487;BME280;10510;47.942;9.442;2023-06-22T07:28:50;94589.19;;;25.89;100.00
11487;BME280;10510;47.942;9.442;2023-06-22T07:30:51;94592.94;;;25.88;100.00
11487;BME280;10510;47.942;9.442;2023-06-22T07:32:51;94596.69;;;25.81;100.00
11487;BME280;10510;47.942;9.442;2023-06-22T07:34:51;94590.47;;;25.96;100.00
11487;BME280;10510;47.942;9.442;2023-06-22T07:36:51;94584.66;;;26.18;100.00
11487;BME280;10510;47.942;9.442;2023-06-22T07:38:52;94576.56;;;26.53;100.00
11487;BME280;10510;47.942;9.442;2023-06-22T07:40:52;94579.34;;;26.66;100.00
11487;BME280;10510;47.942;9.442;2023-06-22T07:42:53;94578.28;;;26.91;100.00
11487;BME280;10510;47.942;9.442;2023-06-22T07:44:53;94576.59;;;27.14;100.00
11487;BME280;10510;47.942;9.442;2023-06-22T07:46:54;94566.56;;;27.06;100.00
11487;BME280;10510;47.942;9.442;2023-06-22T07:48:55;94566.94;;;27.18;100.00
11487;BME280;10510;47.942;9.442;2023-06-22T07:50:55;94570.84;;;27.26;100.00
11487;BME280;10510;47.942;9.442;2023-06-22T07:52:55;94577.03;;;27.27;100.00
11487;BME280;10510;47.942;9.442;2023-06-22T07:54:56;94561.72;;;27.46;100.00
11487;BME280;10510;47.942;9.442;2023-06-22T07:56:56;94558.78;;;27.61;100.00
11487;BME280;10510;47.942;9.442;2023-06-22T07:58:56;94551.78;;;27.66;100.00
11487;BME280;10510;47.942;9.442;2023-06-22T08:00:59;94556.34;;;27.84;100.00
11487;BME280;10510;47.942;9.442;2023-06-22T08:02:59;94562.59;;;28.26;100.00
11487;BME280;10510;47.942;9.442;2023-06-22T08:04:59;94552.31;;;28.61;100.00
11487;BME280;10510;47.942;9.442;2023-06-22T08:07:00;94553.81;;;28.81;100.00
11487;BME280;10510;47.942;9.442;2023-06-22T08:09:01;94555.28;;;28.87;100.00
11487;BME280;10510;47.942;9.442;2023-06-22T08:11:01;94552.00;;;28.76;100.00
11487;BME280;10510;47.942;9.442;2023-06-22T08:13:02;94551.91;;;28.81;100.00
11487;BME280;10510;47.942;9.442;2023-06-22T08:15:02;94547.50;;;28.99;100.00
11487;BME280;10510;47.942;9.442;2023-06-22T08:17:03;94539.44;;;29.13;100.00
11487;BME280;10510;47.942;9.442;2023-06-22T08:19:03;94533.06;;;29.09;100.00
11487;BME280;10510;47.942;9.442;2023-06-22T08:21:03;94543.50;;;28.96;100.00
11487;BME280;10510;47.942;9.442;2023-06-22T08:23:04;94552.88;;;28.85;100.00
11487;BME280;10510;47.942;9.442;2023-06-22T08:25:06;94555.09;;;28.69;100.00
11487;BME280;10510;47.942;9.442;2023-06-22T08:27:07;94555.97;;;28.65;100.00
11487;BME280;10510;47.942;9.442;2023-06-22T08:29:16;94563.66;;;28.58;100.00
11487;BME280;10510;47.942;9.442;2023-06-22T08:31:16;94575.91;;;28.64;100.00
11487;BME280;10510;47.942;9.442;2023-06-22T08:33:16;94581.72;;;28.38;100.00
11487;BME280;10510;47.942;9.442;2023-06-22T08:35:17;94598.44;;;28.35;100.00
11487;BME280;10510;47.942;9.442;2023-06-22T08:37:18;94614.81;;;28.52;100.00
11487;BME280;10510;47.942;9.442;2023-06-22T08:39:19;94640.88;;;28.52;100.00
11487;BME280;10510;47.942;9.442;2023-06-22T08:41:20;94644.13;;;28.68;100.00
11487;BME280;10510;47.942;9.442;2023-06-22T08:43:20;94630.88;;;28.99;100.00
11487;BME280;10510;47.942;9.442;2023-06-22T08:45:21;94633.78;;;29.30;100.00
11487;BME280;10510;47.942;9.442;2023-06-22T08:47:21;94629.97;;;29.31;100.00
11487;BME280;10510;47.942;9.442;2023-06-22T08:49:22;94630.91;;;29.13;100.00
11487;BME280;10510;47.942;9.442;2023-06-22T08:51:23;94635.84;;;28.78;100.00
11487;BME280;10510;47.942;9.442;2023-06-22T08:53:24;94630.59;;;28.40;100.00
11487;BME280;10510;47.942;9.442;2023-06-22T08:55:24;94631.38;;;28.27;100.00
11487;BME280;10510;47.942;9.442;2023-06-22T08:57:24;94634.38;;;28.39;100.00
11487;BME280;10510;47.942;9.442;2023-06-22T08:59:24;94637.31;;;28.57;100.00
11487;BME280;10510;47.942;9.442;2023-06-22T09:01:25;94638.13;;;28.71;100.00
11487;BME280;10510;47.942;9.442;2023-06-22T09:03:25;94635.66;;;28.74;100.00
11487;BME280;10510;47.942;9.442;2023-06-22T09:05:26;94641.09;;;28.23;100.00
11487;BME280;10510;47.942;9.442;2023-06-22T09:07:26;94633.22;;;27.75;100.00
11487;BME280;10510;47.942;9.442;2023-06-22T09:09:27;94635.50;;;27.87;100.00
11487;BME280;10510;47.942;9.442;2023-06-22T09:11:27;94642.25;;;28.17;100.00
11487;BME280;10510;47.942;9.442;2023-06-22T09:13:30;94647.59;;;28.36;100.00
11487;BME280;10510;47.942;9.442;2023-06-22T09:15:31;94642.13;;;28.41;100.00
11487;BME280;10510;47.942;9.442;2023-06-22T09:17:31;94640.41;;;28.31;100.00
11487;BME280;10510;47.942;9.442;2023-06-22T09:19:32;94644.16;;;28.16;100.00
11487;BME280;10510;47.942;9.442;2023-06-22T09:21:33;94641.78;;;28.28;100.00
11487;BME280;10510;47.942;9.442;2023-06-22T09:23:33;94643.38;;;28.48;100.00
11487;BME280;10510;47.942;9.442;2023-06-22T09:25:33;94634.91;;;28.55;100.00
11487;BME280;10510;47.942;9.442;2023-06-22T09:27:33;94609.88;;;28.27;100.00
11487;BME280;10510;47.942;9.442;2023-06-22T09:29:34;94604.66;;;27.84;100.00
11487;BME280;10510;47.942;9.442;2023-06-22T09:31:34;94610.94;;;27.93;100.00
11487;BME280;10510;47.942;9.442;2023-06-22T09:33:35;94609.44;;;28.20;100.00
11487;BME280;10510;47.942;9.442;2023-06-22T09:35:36;94595.78;;;28.49;100.00
11487;BME280;10510;47.942;9.442;2023-06-22T09:37:36;94589.94;;;28.61;100.00
11487;BME280;10510;47.942;9.442;2023-06-22T09:39:36;94596.41;;;28.73;100.00
11487;BME280;10510;47.942;9.442;2023-06-22T09:41:37;94597.50;;;29.00;100.00
11487;BME280;10510;47.942;9.442;2023-06-22T09:43:37;94600.19;;;29.28;100.00
11487;BME280;10510;47.942;9.442;2023-06-22T09:45:37;94597.03;;;29.62;100.00
11487;BME280;10510;47.942;9.442;2023-06-22T09:47:37;94592.81;;;29.70;100.00
11487;BME280;10510;47.942;9.442;2023-06-22T09:49:38;94602.19;;;29.72;100.00
11487;BME280;10510;47.942;9.442;2023-06-22T09:51:38;94604.03;;;29.63;100.00
11487;BME280;10510;47.942;9.442;2023-06-22T09:53:38;94602.00;;;29.55;100.00
11487;BME280;10510;47.942;9.442;2023-06-22T09:55:39;94598.34;;;29.51;100.00
11487;BME280;10510;47.942;9.442;2023-06-22T09:57:39;94596.44;;;29.65;100.00
11487;BME280;10510;47.942;9.442;2023-06-22T09:59:39;94588.38;;;29.65;100.00
11487;BME280;10510;47.942;9.442;2023-06-22T10:01:42;94588.00;;;29.80;100.00
11487;BME280;10510;47.942;9.442;2023-06-22T10:03:43;94584.59;;;29.88;100.00
11487;BME280;10510;47.942;9.442;2023-06-22T10:05:43;94580.78;;;29.90;100.00
11487;BME280;10510;47.942;9.442;2023-06-22T10:07:43;94578.38;;;30.10;100.00
11487;BME280;10510;47.942;9.442;2023-06-22T10:09:44;94576.75;;;30.01;100.00
11487;BME280;10510;47.942;9.442;2023-06-22T10:11:44;94578.25;;;29.71;100.00
11487;BME280;10510;47.942;9.442;2023-06-22T10:13:44;94571.75;;;29.35;100.00
11487;BME280;10510;47.942;9.442;2023-06-22T10:15:44;94576.53;;;29.38;100.00
11487;BME280;10510;47.942;9.442;2023-06-22T10:17:51;94583.47;;;29.67;100.00
11487;BME280;10510;47.942;9.442;2023-06-22T10:19:51;94584.63;;;29.97;100.00
11487;BME280;10510;47.942;9.442;2023-06-22T10:21:51;94586.16;;;30.12;100.00
11487;BME280;10510;47.942;9.442;2023-06-22T10:23:52;94573.78;;;30.11;100.00
11487;BME280;10510;47.942;9.442;2023-06-22T10:25:52;94565.75;;;30.20;100.00
11487;BME280;10510;47.942;9.442;2023-06-22T10:27:52;94562.38;;;30.37;100.00
11487;BME280;10510;47.942;9.442;2023-06-22T10:29:52;94560.25;;;30.56;100.00
11487;BME280;10510;47.942;9.442;2023-06-22T10:31:53;94540.41;;;30.92;100.00
11487;BME280;10510;47.942;9.442;2023-06-22T10:33:55;94545.84;;;31.09;100.00